sensor_id;sensor_type;location;lat;lon;timestamp;pressure;altitude;pressure_sealevel;temperature;humidity
61345;BME280;47216;42.656;23.232;2023-05-20T00:00:06;94216.94;;;11.68;80.21
61345;BME280;47216;42.656;23.232;2023-05-20T00:02:34;94202.22;;;11.62;80.31
61345;BME280;47216;42.656;23.232;2023-05-20T00:05:02;94213.53;;;11.68;80.66
61345;BME280;47216;42.656;23.232;2023-05-20T00:07:29;94215.38;;;11.67;80.52
61345;BME280;47216;42.656;23.232;2023-05-20T00:09:56;94205.88;;;11.61;80.54
61345;BME280;47216;42.656;23.232;2023-05-20T00:12:24;94210.00;;;11.57;80.02
61345;BME280;47216;42.656;23.232;2023-05-20T00:14:52;94210.00;;;11.57;80.05
61345;BME280;47216;42.656;23.232;2023-05-20T00:17:21;94206.38;;;11.58;79.29
61345;BME280;47216;42.656;23.232;2023-05-20T00:19:48;94215.56;;;11.61;79.73
61345;BME280;47216;42.656;23.232;2023-05-20T00:22:15;94206.34;;;11.53;79.40
61345;BME280;47216;42.656;23.232;2023-05-20T00:24:42;94211.00;;;11.51;79.20
61345;BME280;47216;42.656;23.232;2023-05-20T00:27:10;94205.97;;;11.44;79.41
61345;BME280;47216;42.656;23.232;2023-05-20T00:29:37;94210.41;;;11.44;79.59
61345;BME280;47216;42.656;23.232;2023-05-20T00:32:04;94211.44;;;11.43;79.73
61345;BME280;47216;42.656;23.232;2023-05-20T00:34:34;94202.88;;;11.25;81.28
61345;BME280;47216;42.656;23.232;2023-05-20T00:37:02;94202.25;;;11.18;81.43
61345;BME280;47216;42.656;23.232;2023-05-20T00:39:29;94209.78;;;11.36;81.00
61345;BME280;47216;42.656;23.232;2023-05-20T00:41:56;94191.38;;;11.26;81.16
61345;BME280;47216;42.656;23.232;2023-05-20T00:44:26;94209.78;;;11.36;81.00
61345;BME280;47216;42.656;23.232;2023-05-20T00:46:54;94187.22;;;11.25;80.68
61345;BME280;47216;42.656;23.232;2023-05-20T00:49:21;94201.09;;;11.31;80.72
61345;BME280;47216;42.656;23.232;2023-05-20T00:51:51;94172.88;;;11.06;81.19
61345;BME280;47216;42.656;23.232;2023-05-20T00:54:19;94185.50;;;11.14;80.84
61345;BME280;47216;42.656;23.232;2023-05-20T00:56:47;94180.91;;;11.21;80.97
61345;BME280;47216;42.656;23.232;2023-05-20T00:59:15;94194.72;;;11.22;80.92
61345;BME280;47216;42.656;23.232;2023-05-20T01:01:42;94173.97;;;11.10;80.84
61345;BME280;47216;42.656;23.232;2023-05-20T01:04:10;94185.31;;;11.21;80.81
61345;BME280;47216;42.656;23.232;2023-05-20T01:06:38;94185.00;;;11.17;80.79
61345;BME280;47216;42.656;23.232;2023-05-20T01:09:06;94185.66;;;11.29;80.80
61345;BME280;47216;42.656;23.232;2023-05-20T01:11:37;94163.63;;;11.20;80.58
61345;BME280;47216;42.656;23.232;2023-05-20T01:14:07;94164.72;;;11.24;81.08
61345;BME280;47216;42.656;23.232;2023-05-20T01:16:38;94170.00;;;11.29;81.30
61345;BME280;47216;42.656;23.232;2023-05-20T01:19:17;94170.56;;;11.31;81.27
61345;BME280;47216;42.656;23.232;2023-05-20T01:21:49;94169.59;;;11.38;80.69
61345;BME280;47216;42.656;23.232;2023-05-20T01:24:24;94189.63;;;11.54;80.97
61345;BME280;47216;42.656;23.232;2023-05-20T01:26:54;94174.91;;;11.48;80.88
61345;BME280;47216;42.656;23.232;2023-05-20T01:29:23;94182.03;;;11.52;80.66
61345;BME280;47216;42.656;23.232;2023-05-20T01:31:51;94174.44;;;11.51;80.45
61345;BME280;47216;42.656;23.232;2023-05-20T01:34:19;94186.56;;;11.62;80.34
61345;BME280;47216;42.656;23.232;2023-05-20T01:36:47;94189.44;;;11.61;80.07
61345;BME280;47216;42.656;23.232;2023-05-20T01:39:15;94190.94;;;11.56;79.54
61345;BME280;47216;42.656;23.232;2023-05-20T01:41:45;94193.56;;;11.56;79.65
61345;BME280;47216;42.656;23.232;2023-05-20T01:44:13;94185.91;;;11.50;79.55
61345;BME280;47216;42.656;23.232;2023-05-20T01:46:40;94171.88;;;11.34;79.58
61345;BME280;47216;42.656;23.232;2023-05-20T01:49:07;94168.13;;;11.25;79.71
61345;BME280;47216;42.656;23.232;2023-05-20T01:51:34;94178.75;;;11.18;80.92
61345;BME280;47216;42.656;23.232;2023-05-20T01:54:02;94177.59;;;11.09;82.20
61345;BME280;47216;42.656;23.232;2023-05-20T01:56:29;94174.91;;;11.04;82.27
61345;BME280;47216;42.656;23.232;2023-05-20T01:58:58;94175.97;;;11.03;81.84
61345;BME280;47216;42.656;23.232;2023-05-20T02:01:25;94179.19;;;11.10;82.16
61345;BME280;47216;42.656;23.232;2023-05-20T02:03:52;94182.34;;;11.12;82.13
61345;BME280;47216;42.656;23.232;2023-05-20T02:06:19;94181.00;;;11.09;82.09
61345;BME280;47216;42.656;23.232;2023-05-20T02:08:46;94170.31;;;11.11;81.81
61345;BME280;47216;42.656;23.232;2023-05-20T02:11:13;94179.97;;;11.10;82.16
61345;BME280;47216;42.656;23.232;2023-05-20T02:13:39;94180.28;;;11.14;81.51
61345;BME280;47216;42.656;23.232;2023-05-20T02:16:08;94166.69;;;11.12;81.83
61345;BME280;47216;42.656;23.232;2023-05-20T02:18:35;94178.50;;;11.20;81.65
61345;BME280;47216;42.656;23.232;2023-05-20T02:21:03;94174.88;;;11.21;81.65
61345;BME280;47216;42.656;23.232;2023-05-20T02:23:30;94177.06;;;11.29;81.90
61345;BME280;47216;42.656;23.232;2023-05-20T02:25:57;94175.78;;;11.31;81.21
61345;BME280;47216;42.656;23.232;2023-05-20T02:28:24;94164.44;;;11.21;80.86
61345;BME280;47216;42.656;23.232;2023-05-20T02:30:51;94172.06;;;11.27;80.53
61345;BME280;47216;42.656;23.232;2023-05-20T02:33:19;94164.44;;;11.21;80.57
61345;BME280;47216;42.656;23.232;2023-05-20T02:35:46;94160.47;;;11.18;80.08
61345;BME280;47216;42.656;23.232;2023-05-20T02:38:13;94169.19;;;11.24;80.49
61345;BME280;47216;42.656;23.232;2023-05-20T02:40:43;94160.47;;;11.18;79.95
61345;BME280;47216;42.656;23.232;2023-05-20T02:43:10;94164.13;;;11.17;79.92
61345;BME280;47216;42.656;23.232;2023-05-20T02:45:36;94168.41;;;11.23;79.72
61345;BME280;47216;42.656;23.232;2023-05-20T02:48:04;94166.97;;;11.15;79.67
61345;BME280;47216;42.656;23.232;2023-05-20T02:50:32;94175.53;;;11.11;79.74
61345;BME280;47216;42.656;23.232;2023-05-20T02:52:59;94174.03;;;11.15;79.70
61345;BME280;47216;42.656;23.232;2023-05-20T02:55:26;94171.41;;;11.15;79.47
61345;BME280;47216;42.656;23.232;2023-05-20T02:57:53;94170.06;;;11.12;79.69
61345;BME280;47216;42.656;23.232;2023-05-20T03:00:20;94172.91;;;11.11;79.30
61345;BME280;47216;42.656;23.232;2023-05-20T03:02:48;94170.25;;;11.06;79.12
61345;BME280;47216;42.656;23.232;2023-05-20T03:05:14;94178.91;;;10.89;79.62
61345;BME280;47216;42.656;23.232;2023-05-20T03:07:43;94183.41;;;10.94;79.85
61345;BME280;47216;42.656;23.232;2023-05-20T03:10:10;94182.69;;;10.99;79.76
61345;BME280;47216;42.656;23.232;2023-05-20T03:12:37;94183.72;;;10.98;80.13
61345;BME280;47216;42.656;23.232;2023-05-20T03:15:05;94179.41;;;10.86;80.30
61345;BME280;47216;42.656;23.232;2023-05-20T03:17:33;94184.38;;;10.88;79.79
61345;BME280;47216;42.656;23.232;2023-05-20T03:20:00;94183.81;;;10.86;80.26
61345;BME280;47216;42.656;23.232;2023-05-20T03:22:28;94182.31;;;10.90;79.93
61345;BME280;47216;42.656;23.232;2023-05-20T03:24:57;94180.97;;;10.87;79.93
61345;BME280;47216;42.656;23.232;2023-05-20T03:27:25;94188.78;;;10.87;80.31
61345;BME280;47216;42.656;23.232;2023-05-20T03:29:52;94203.28;;;10.78;80.40
61345;BME280;47216;42.656;23.232;2023-05-20T03:32:19;94196.00;;;10.80;80.97
61345;BME280;47216;42.656;23.232;2023-05-20T03:34:46;94197.13;;;10.84;81.09
61345;BME280;47216;42.656;23.232;2023-05-20T03:37:14;94195.06;;;10.86;80.64
61345;BME280;47216;42.656;23.232;2023-05-20T03:39:40;94202.34;;;10.84;80.85
61345;BME280;47216;42.656;23.232;2023-05-20T03:42:09;94191.28;;;10.77;81.24
61345;BME280;47216;42.656;23.232;2023-05-20T03:44:37;94207.16;;;10.76;81.43
61345;BME280;47216;42.656;23.232;2023-05-20T03:47:04;94199.94;;;10.83;81.48
61345;BME280;47216;42.656;23.232;2023-05-20T03:49:31;94199.28;;;10.92;81.37
61345;BME280;47216;42.656;23.232;2023-05-20T03:51:58;94187.22;;;10.86;81.35
61345;BME280;47216;42.656;23.232;2023-05-20T03:54:25;94205.13;;;11.00;81.58
61345;BME280;47216;42.656;23.232;2023-05-20T03:56:54;94198.13;;;11.00;81.94
61345;BME280;47216;42.656;23.232;2023-05-20T03:59:24;94208.38;;;11.07;81.92
61345;BME280;47216;42.656;23.232;2023-05-20T04:01:51;94210.00;;;11.13;82.13
61345;BME280;47216;42.656;23.232;2023-05-20T04:04:18;94193.50;;;11.07;82.40
61345;BME280;47216;42.656;23.232;2023-05-20T04:06:45;94207.00;;;11.21;82.58
61345;BME280;47216;42.656;23.232;2023-05-20T04:09:12;94211.22;;;11.27;82.83
61345;BME280;47216;42.656;23.232;2023-05-20T04:11:40;94200.31;;;11.30;82.93
61345;BME280;47216;42.656;23.232;2023-05-20T04:14:08;94195.16;;;11.35;82.83
61345;BME280;47216;42.656;23.232;2023-05-20T04:16:37;94191.59;;;11.42;82.94
61345;BME280;47216;42.656;23.232;2023-05-20T04:19:04;94212.16;;;11.60;82.70
61345;BME280;47216;42.656;23.232;2023-05-20T04:21:32;94212.25;;;11.70;83.04
61345;BME280;47216;42.656;23.232;2023-05-20T04:23:58;94218.63;;;11.80;83.18
61345;BME280;47216;42.656;23.232;2023-05-20T04:26:25;94213.53;;;11.90;83.08
61345;BME280;47216;42.656;23.232;2023-05-20T04:28:53;94213.69;;;12.05;82.87
61345;BME280;47216;42.656;23.232;2023-05-20T04:31:23;94221.69;;;12.21;82.49
61345;BME280;47216;42.656;23.232;2023-05-20T04:33:54;94213.88;;;12.26;82.80
61345;BME280;47216;42.656;23.232;2023-05-20T04:36:21;94215.31;;;12.38;82.76
61345;BME280;47216;42.656;23.232;2023-05-20T04:38:53;94220.03;;;12.42;82.75
61345;BME280;47216;42.656;23.232;2023-05-20T04:41:20;94203.34;;;12.48;82.76
61345;BME280;47216;42.656;23.232;2023-05-20T04:43:48;94210.28;;;12.64;82.86
61345;BME280;47216;42.656;23.232;2023-05-20T04:46:15;94209.78;;;12.72;83.01
61345;BME280;47216;42.656;23.232;2023-05-20T04:48:43;94220.91;;;12.90;83.27
61345;BME280;47216;42.656;23.232;2023-05-20T04:51:11;94220.44;;;13.03;82.85
61345;BME280;47216;42.656;23.232;2023-05-20T04:53:38;94201.41;;;13.13;83.09
61345;BME280;47216;42.656;23.232;2023-05-20T04:56:05;94216.97;;;13.30;82.35
61345;BME280;47216;42.656;23.232;2023-05-20T04:58:32;94226.22;;;13.42;82.22
61345;BME280;47216;42.656;23.232;2023-05-20T05:00:59;94214.19;;;13.52;81.93
61345;BME280;47216;42.656;23.232;2023-05-20T05:03:27;94209.22;;;13.55;82.15
61345;BME280;47216;42.656;23.232;2023-05-20T05:05:55;94208.47;;;13.70;81.09
61345;BME280;47216;42.656;23.232;2023-05-20T05:08:28;94204.59;;;13.83;80.62
61345;BME280;47216;42.656;23.232;2023-05-20T05:10:56;94205.94;;;13.96;80.48
61345;BME280;47216;42.656;23.232;2023-05-20T05:13:23;94211.47;;;14.15;79.84
61345;BME280;47216;42.656;23.232;2023-05-20T05:15:57;94212.25;;;14.25;78.42
61345;BME280;47216;42.656;23.232;2023-05-20T05:18:24;94215.97;;;14.40;78.18
61345;BME280;47216;42.656;23.232;2023-05-20T05:20:58;94215.97;;;14.50;77.14
61345;BME280;47216;42.656;23.232;2023-05-20T05:23:26;94213.88;;;14.62;75.16
61345;BME280;47216;42.656;23.232;2023-05-20T05:26:18;94213.13;;;14.72;73.62
61345;BME280;47216;42.656;23.232;2023-05-20T05:28:45;94203.41;;;14.67;72.67
61345;BME280;47216;42.656;23.232;2023-05-20T05:31:12;94211.25;;;14.83;71.74
61345;BME280;47216;42.656;23.232;2023-05-20T05:33:39;94216.47;;;14.88;71.63
61345;BME280;47216;42.656;23.232;2023-05-20T05:36:06;94214.91;;;15.02;70.79
61345;BME280;47216;42.656;23.232;2023-05-20T05:38:34;94199.16;;;15.02;70.54
61345;BME280;47216;42.656;23.232;2023-05-20T05:41:01;94210.91;;;15.25;69.13
61345;BME280;47216;42.656;23.232;2023-05-20T05:43:28;94202.22;;;15.30;69.10
61345;BME280;47216;42.656;23.232;2023-05-20T05:45:55;94203.78;;;15.31;69.19
61345;BME280;47216;42.656;23.232;2023-05-20T05:48:22;94210.09;;;15.25;69.66
61345;BME280;47216;42.656;23.232;2023-05-20T05:50:49;94203.50;;;15.38;69.30
61345;BME280;47216;42.656;23.232;2023-05-20T05:53:16;94198.78;;;15.40;69.54
61345;BME280;47216;42.656;23.232;2023-05-20T05:55:44;94191.09;;;15.53;68.65
61345;BME280;47216;42.656;23.232;2023-05-20T05:58:11;94195.78;;;15.62;69.28
61345;BME280;47216;42.656;23.232;2023-05-20T06:00:38;94195.78;;;15.67;69.74
61345;BME280;47216;42.656;23.232;2023-05-20T06:03:05;94191.81;;;15.74;68.79
61345;BME280;47216;42.656;23.232;2023-05-20T06:05:32;94191.00;;;15.79;68.60
61345;BME280;47216;42.656;23.232;2023-05-20T06:07:59;94201.50;;;15.84;68.87
61345;BME280;47216;42.656;23.232;2023-05-20T06:10:26;94192.97;;;16.03;68.50
61345;BME280;47216;42.656;23.232;2023-05-20T06:12:54;94194.50;;;16.14;68.57
61345;BME280;47216;42.656;23.232;2023-05-20T06:15:21;94189.66;;;16.26;69.53
61345;BME280;47216;42.656;23.232;2023-05-20T06:17:48;94192.25;;;16.36;68.13
61345;BME280;47216;42.656;23.232;2023-05-20T06:20:15;94193.69;;;16.53;68.70
61345;BME280;47216;42.656;23.232;2023-05-20T06:22:42;94193.91;;;16.56;66.54
61345;BME280;47216;42.656;23.232;2023-05-20T06:25:09;94183.81;;;16.69;65.94
61345;BME280;47216;42.656;23.232;2023-05-20T06:27:36;94176.97;;;16.68;66.35
61345;BME280;47216;42.656;23.232;2023-05-20T06:30:06;94178.22;;;16.80;66.08
61345;BME280;47216;42.656;23.232;2023-05-20T06:32:33;94184.41;;;16.95;66.47
61345;BME280;47216;42.656;23.232;2023-05-20T06:35:00;94170.00;;;17.11;66.07
61345;BME280;47216;42.656;23.232;2023-05-20T06:37:27;94157.91;;;17.10;65.70
61345;BME280;47216;42.656;23.232;2023-05-20T06:39:54;94158.34;;;17.17;64.91
61345;BME280;47216;42.656;23.232;2023-05-20T06:42:20;94156.53;;;17.37;64.46
61345;BME280;47216;42.656;23.232;2023-05-20T06:44:47;94157.56;;;17.41;63.54
61345;BME280;47216;42.656;23.232;2023-05-20T06:47:18;94154.84;;;17.46;63.29
61345;BME280;47216;42.656;23.232;2023-05-20T06:49:44;94163.63;;;17.60;62.96
61345;BME280;47216;42.656;23.232;2023-05-20T06:52:11;94154.03;;;17.70;62.78
61345;BME280;47216;42.656;23.232;2023-05-20T06:54:38;94137.75;;;17.62;62.50
61345;BME280;47216;42.656;23.232;2023-05-20T06:57:06;94151.78;;;17.82;61.34
61345;BME280;47216;42.656;23.232;2023-05-20T06:59:33;94156.91;;;17.92;61.07
61345;BME280;47216;42.656;23.232;2023-05-20T07:02:00;94155.13;;;18.06;60.68
61345;BME280;47216;42.656;23.232;2023-05-20T07:04:29;94169.31;;;18.11;60.36
61345;BME280;47216;42.656;23.232;2023-05-20T07:06:56;94165.06;;;18.15;60.14
61345;BME280;47216;42.656;23.232;2023-05-20T07:09:23;94164.31;;;18.28;59.96
61345;BME280;47216;42.656;23.232;2023-05-20T07:11:50;94158.41;;;18.17;59.27
61345;BME280;47216;42.656;23.232;2023-05-20T07:14:17;94165.75;;;18.39;57.36
61345;BME280;47216;42.656;23.232;2023-05-20T07:16:44;94169.44;;;18.38;56.32
61345;BME280;47216;42.656;23.232;2023-05-20T07:19:11;94166.56;;;18.54;55.55
61345;BME280;47216;42.656;23.232;2023-05-20T07:21:40;94160.53;;;18.67;54.48
61345;BME280;47216;42.656;23.232;2023-05-20T07:24:07;94167.75;;;18.61;54.23
61345;BME280;47216;42.656;23.232;2023-05-20T07:26:34;94160.50;;;18.53;54.78
61345;BME280;47216;42.656;23.232;2023-05-20T07:29:01;94156.31;;;18.66;55.19
61345;BME280;47216;42.656;23.232;2023-05-20T07:31:29;94151.94;;;18.75;54.24
61345;BME280;47216;42.656;23.232;2023-05-20T07:33:56;94155.63;;;18.93;52.89
61345;BME280;47216;42.656;23.232;2023-05-20T07:36:25;94155.75;;;19.02;52.37
61345;BME280;47216;42.656;23.232;2023-05-20T07:38:53;94146.34;;;19.09;52.54
61345;BME280;47216;42.656;23.232;2023-05-20T07:41:21;94147.50;;;19.17;53.56
61345;BME280;47216;42.656;23.232;2023-05-20T07:43:48;94165.91;;;19.22;53.47
61345;BME280;47216;42.656;23.232;2023-05-20T07:46:15;94161.03;;;19.29;52.94
61345;BME280;47216;42.656;23.232;2023-05-20T07:48:42;94153.38;;;19.42;51.95
61345;BME280;47216;42.656;23.232;2023-05-20T07:51:09;94155.25;;;19.55;51.51
61345;BME280;47216;42.656;23.232;2023-05-20T07:53:36;94155.91;;;19.61;51.35
61345;BME280;47216;42.656;23.232;2023-05-20T07:56:05;94156.69;;;19.47;50.43
61345;BME280;47216;42.656;23.232;2023-05-20T07:58:32;94159.06;;;19.49;51.26
61345;BME280;47216;42.656;23.232;2023-05-20T08:00:59;94161.50;;;19.59;52.25
61345;BME280;47216;42.656;23.232;2023-05-20T08:03:26;94156.53;;;19.71;51.33
61345;BME280;47216;42.656;23.232;2023-05-20T08:05:53;94157.97;;;19.78;51.53
61345;BME280;47216;42.656;23.232;2023-05-20T08:08:20;94149.22;;;19.91;51.09
61345;BME280;47216;42.656;23.232;2023-05-20T08:10:47;94151.97;;;19.86;51.66
61345;BME280;47216;42.656;23.232;2023-05-20T08:13:15;94146.09;;;19.89;51.65
61345;BME280;47216;42.656;23.232;2023-05-20T08:15:42;94139.78;;;19.99;50.92
61345;BME280;47216;42.656;23.232;2023-05-20T08:18:09;94129.38;;;20.02;50.80
61345;BME280;47216;42.656;23.232;2023-05-20T08:20:36;94141.94;;;20.10;51.14
61345;BME280;47216;42.656;23.232;2023-05-20T08:23:03;94135.47;;;20.03;50.60
61345;BME280;47216;42.656;23.232;2023-05-20T08:25:30;94146.84;;;20.26;51.56
61345;BME280;47216;42.656;23.232;2023-05-20T08:27:56;94144.69;;;20.28;49.66
61345;BME280;47216;42.656;23.232;2023-05-20T08:30:26;94144.53;;;20.24;50.11
61345;BME280;47216;42.656;23.232;2023-05-20T08:32:53;94135.91;;;20.41;50.41
61345;BME280;47216;42.656;23.232;2023-05-20T08:35:20;94137.94;;;20.22;50.24
61345;BME280;47216;42.656;23.232;2023-05-20T08:37:48;94127.81;;;20.24;51.16
61345;BME280;47216;42.656;23.232;2023-05-20T08:40:15;94133.47;;;20.31;51.95
61345;BME280;47216;42.656;23.232;2023-05-20T08:42:42;94132.34;;;20.23;52.46
61345;BME280;47216;42.656;23.232;2023-05-20T08:45:10;94127.41;;;20.30;51.31
61345;BME280;47216;42.656;23.232;2023-05-20T08:47:41;94128.25;;;20.40;51.92
61345;BME280;47216;42.656;23.232;2023-05-20T08:50:09;94129.75;;;20.54;51.42
61345;BME280;47216;42.656;23.232;2023-05-20T08:52:37;94138.63;;;20.50;50.18
61345;BME280;47216;42.656;23.232;2023-05-20T08:55:08;94133.25;;;20.41;50.27
61345;BME280;47216;42.656;23.232;2023-05-20T08:57:37;94133.75;;;20.43;50.67
61345;BME280;47216;42.656;23.232;2023-05-20T09:00:08;94126.38;;;20.40;51.32
61345;BME280;47216;42.656;23.232;2023-05-20T09:02:37;94133.31;;;20.50;51.78
61345;BME280;47216;42.656;23.232;2023-05-20T09:05:07;94130.84;;;20.53;50.41
61345;BME280;47216;42.656;23.232;2023-05-20T09:07:36;94129.94;;;20.58;50.18
61345;BME280;47216;42.656;23.232;2023-05-20T09:10:05;94117.38;;;20.64;50.31
61345;BME280;47216;42.656;23.232;2023-05-20T09:12:32;94113.00;;;20.59;50.33
61345;BME280;47216;42.656;23.232;2023-05-20T09:14:59;94116.41;;;20.60;51.88
61345;BME280;47216;42.656;23.232;2023-05-20T09:17:26;94120.50;;;20.66;51.33
61345;BME280;47216;42.656;23.232;2023-05-20T09:19:53;94127.38;;;20.67;50.46
61345;BME280;47216;42.656;23.232;2023-05-20T09:22:25;94127.97;;;20.64;49.54
61345;BME280;47216;42.656;23.232;2023-05-20T09:24:53;94126.25;;;20.68;50.35
61345;BME280;47216;42.656;23.232;2023-05-20T09:27:20;94115.75;;;20.85;50.94
61345;BME280;47216;42.656;23.232;2023-05-20T09:29:48;94112.16;;;20.81;51.13
61345;BME280;47216;42.656;23.232;2023-05-20T09:32:16;94111.56;;;20.84;50.79
61345;BME280;47216;42.656;23.232;2023-05-20T09:34:45;94107.19;;;20.88;51.81
61345;BME280;47216;42.656;23.232;2023-05-20T09:37:13;94113.09;;;20.85;51.44
61345;BME280;47216;42.656;23.232;2023-05-20T09:39:53;94112.84;;;20.95;51.56
61345;BME280;47216;42.656;23.232;2023-05-20T09:42:25;94107.84;;;20.94;51.05
61345;BME280;47216;42.656;23.232;2023-05-20T09:44:54;94106.84;;;20.81;51.02
61345;BME280;47216;42.656;23.232;2023-05-20T09:47:22;94104.47;;;20.71;50.06
61345;BME280;47216;42.656;23.232;2023-05-20T09:49:51;94095.69;;;20.62;51.52
61345;BME280;47216;42.656;23.232;2023-05-20T09:52:18;94110.13;;;20.55;52.31
61345;BME280;47216;42.656;23.232;2023-05-20T09:54:48;94104.22;;;20.59;50.81
61345;BME280;47216;42.656;23.232;2023-05-20T09:57:16;94095.06;;;20.65;51.83
61345;BME280;47216;42.656;23.232;2023-05-20T09:59:45;94100.38;;;20.65;52.10
61345;BME280;47216;42.656;23.232;2023-05-20T10:02:13;94099.75;;;20.59;51.19
61345;BME280;47216;42.656;23.232;2023-05-20T10:04:43;94093.19;;;20.65;51.75
61345;BME280;47216;42.656;23.232;2023-05-20T10:07:35;94079.75;;;20.84;51.68
61345;BME280;47216;42.656;23.232;2023-05-20T10:10:17;94085.91;;;20.71;51.39
61345;BME280;47216;42.656;23.232;2023-05-20T10:12:52;94083.72;;;20.64;50.59
61345;BME280;47216;42.656;23.232;2023-05-20T10:15:26;94080.28;;;20.64;51.51
61345;BME280;47216;42.656;23.232;2023-05-20T10:18:01;94069.34;;;20.56;50.03
61345;BME280;47216;42.656;23.232;2023-05-20T10:20:29;94062.22;;;20.66;50.74
61345;BME280;47216;42.656;23.232;2023-05-20T10:22:56;94068.34;;;20.75;49.75
61345;BME280;47216;42.656;23.232;2023-05-20T10:25:25;94053.03;;;20.72;50.17
61345;BME280;47216;42.656;23.232;2023-05-20T10:28:03;94044.47;;;20.75;49.88
61345;BME280;47216;42.656;23.232;2023-05-20T10:30:32;94047.13;;;20.84;49.91
61345;BME280;47216;42.656;23.232;2023-05-20T10:33:02;94055.22;;;20.78;48.95
61345;BME280;47216;42.656;23.232;2023-05-20T10:35:30;94053.34;;;20.79;49.30
61345;BME280;47216;42.656;23.232;2023-05-20T10:38:06;94049.06;;;20.61;48.57
61345;BME280;47216;42.656;23.232;2023-05-20T10:40:35;94043.41;;;20.53;48.09
61345;BME280;47216;42.656;23.232;2023-05-20T10:43:08;94033.06;;;20.66;48.04
61345;BME280;47216;42.656;23.232;2023-05-20T10:45:46;94033.06;;;20.74;48.58
61345;BME280;47216;42.656;23.232;2023-05-20T10:48:19;94027.34;;;20.81;47.95
61345;BME280;47216;42.656;23.232;2023-05-20T10:50:47;94025.16;;;20.83;48.98
61345;BME280;47216;42.656;23.232;2023-05-20T10:53:14;94007.19;;;20.71;47.75
61345;BME280;47216;42.656;23.232;2023-05-20T10:55:48;94021.28;;;20.89;47.48
61345;BME280;47216;42.656;23.232;2023-05-20T10:58:17;94015.81;;;20.86;47.66
61345;BME280;47216;42.656;23.232;2023-05-20T11:00:44;93999.75;;;20.82;48.46
61345;BME280;47216;42.656;23.232;2023-05-20T11:03:13;94015.34;;;20.84;46.79
61345;BME280;47216;42.656;23.232;2023-05-20T11:05:41;94012.19;;;20.73;47.31
61345;BME280;47216;42.656;23.232;2023-05-20T11:08:08;94000.34;;;20.79;48.52
61345;BME280;47216;42.656;23.232;2023-05-20T11:10:36;94008.34;;;20.88;48.02
61345;BME280;47216;42.656;23.232;2023-05-20T11:13:04;93998.97;;;20.90;47.67
61345;BME280;47216;42.656;23.232;2023-05-20T11:15:33;94004.75;;;20.92;47.69
61345;BME280;47216;42.656;23.232;2023-05-20T11:18:02;93994.00;;;20.97;47.19
61345;BME280;47216;42.656;23.232;2023-05-20T11:20:30;93982.59;;;20.88;47.25
61345;BME280;47216;42.656;23.232;2023-05-20T11:22:59;93995.25;;;20.91;47.19
61345;BME280;47216;42.656;23.232;2023-05-20T11:25:28;93994.75;;;20.81;46.41
61345;BME280;47216;42.656;23.232;2023-05-20T11:27:55;93990.66;;;20.74;46.21
61345;BME280;47216;42.656;23.232;2023-05-20T11:30:24;93987.88;;;20.71;47.24
61345;BME280;47216;42.656;23.232;2023-05-20T11:32:58;93967.88;;;20.65;47.70
61345;BME280;47216;42.656;23.232;2023-05-20T11:35:26;93970.09;;;20.71;48.33
61345;BME280;47216;42.656;23.232;2023-05-20T11:38:00;93968.44;;;20.84;47.67
61345;BME280;47216;42.656;23.232;2023-05-20T11:40:28;93972.28;;;20.78;47.87
61345;BME280;47216;42.656;23.232;2023-05-20T11:43:01;93969.19;;;20.85;47.26
61345;BME280;47216;42.656;23.232;2023-05-20T11:45:39;93959.03;;;20.78;47.34
61345;BME280;47216;42.656;23.232;2023-05-20T11:48:07;93966.06;;;20.83;47.17
61345;BME280;47216;42.656;23.232;2023-05-20T11:50:36;93963.88;;;20.76;47.22
61345;BME280;47216;42.656;23.232;2023-05-20T11:53:06;93960.28;;;20.81;47.57
61345;BME280;47216;42.656;23.232;2023-05-20T11:55:33;93947.78;;;20.64;47.53
61345;BME280;47216;42.656;23.232;2023-05-20T11:58:02;93958.09;;;20.74;47.31
61345;BME280;47216;42.656;23.232;2023-05-20T12:00:29;93956.38;;;20.69;47.48
61345;BME280;47216;42.656;23.232;2023-05-20T12:02:57;93946.06;;;20.68;48.44
61345;BME280;47216;42.656;23.232;2023-05-20T12:05:24;93934.25;;;20.74;48.56
61345;BME280;47216;42.656;23.232;2023-05-20T12:07:51;93941.91;;;20.84;48.45
61345;BME280;47216;42.656;23.232;2023-05-20T12:10:18;93941.28;;;20.87;47.67
61345;BME280;47216;42.656;23.232;2023-05-20T12:12:45;93943.31;;;20.90;47.92
61345;BME280;47216;42.656;23.232;2023-05-20T12:15:12;93935.19;;;20.78;47.63
61345;BME280;47216;42.656;23.232;2023-05-20T12:17:46;93937.41;;;20.85;48.57
61345;BME280;47216;42.656;23.232;2023-05-20T12:20:16;93939.72;;;20.86;48.43
61345;BME280;47216;42.656;23.232;2023-05-20T12:22:43;93939.38;;;20.79;48.79
61345;BME280;47216;42.656;23.232;2023-05-20T12:25:11;93949.34;;;20.65;49.40
61345;BME280;47216;42.656;23.232;2023-05-20T12:27:40;93940.75;;;20.59;49.34
61345;BME280;47216;42.656;23.232;2023-05-20T12:30:08;93930.59;;;20.52;48.70
61345;BME280;47216;42.656;23.232;2023-05-20T12:32:35;93936.75;;;20.39;49.54
61345;BME280;47216;42.656;23.232;2023-05-20T12:35:03;93953.53;;;20.57;49.70
61345;BME280;47216;42.656;23.232;2023-05-20T12:37:54;93950.28;;;20.29;49.06
61345;BME280;47216;42.656;23.232;2023-05-20T12:40:21;93986.16;;;20.12;49.17
61345;BME280;47216;42.656;23.232;2023-05-20T12:42:48;93999.59;;;19.85;48.57
61345;BME280;47216;42.656;23.232;2023-05-20T12:45:17;94004.69;;;19.45;48.54
61345;BME280;47216;42.656;23.232;2023-05-20T12:47:47;94022.13;;;19.46;49.31
61345;BME280;47216;42.656;23.232;2023-05-20T12:50:14;94024.72;;;19.23;50.18
61345;BME280;47216;42.656;23.232;2023-05-20T12:52:43;94028.06;;;19.01;51.64
61345;BME280;47216;42.656;23.232;2023-05-20T12:55:14;94002.22;;;18.71;51.99